HLTD

Ghadames East Airport

Ghadames, Libya
TAF HLTD 180500Z 1806/1906 VRB02KT CAVOK
Issued Valid From Valid To
Jul-18 @ 05:00 UTC
(17 hours ago)
Jul-18 @ 06:00 UTC
(16 hours ago)
Jul-19 @ 06:00 UTC
(in 8 hours)
Jul-18 @ 06:00 to Jul-19 @ 06:00
TAF HLTD 180500Z 1806/1906 VRB02KT CAVOK
Wind Visibility Clouds Conditions
Variable at 2 knots 10,000+ meters
  • No significant clouds
TAF HLTD 180500Z 1806/1906 VRB02KT CAVOK
Issued Jul-18 @ 05:00 UTC
(17 hours ago)
Valid From Jul-18 @ 06:00 UTC
(16 hours ago)
Valid To Jul-19 @ 06:00 UTC
(in 8 hours)
Jul-18 @ 06:00 - Jul-19 @ 06:00
Wind Visibility
Variable at 2 knots 10,000+ meters
Clouds
  • No significant clouds
Conditions